sensor_id;sensor_type;location;lat;lon;timestamp;temperature;humidity
21121;DHT22;12519;43.318;21.898;2023-02-28T00:00:54;6.5;99.0
21121;DHT22;12519;43.318;21.898;2023-02-28T00:05:31;6.5;99.0
21121;DHT22;12519;43.318;21.898;2023-02-28T00:10:13;6.6;98.0
21121;DHT22;12519;43.318;21.898;2023-02-28T00:14:54;6.6;98.0
21121;DHT22;12519;43.318;21.898;2023-02-28T00:19:30;6.6;98.0
21121;DHT22;12519;43.318;21.898;2023-02-28T00:24:07;6.7;97.0
21121;DHT22;12519;43.318;21.898;2023-02-28T00:28:44;6.7;97.0
21121;DHT22;12519;43.318;21.898;2023-02-28T00:33:21;6.5;98.0
21121;DHT22;12519;43.318;21.898;2023-02-28T00:37:58;6.5;98.0
21121;DHT22;12519;43.318;21.898;2023-02-28T00:42:35;6.3;98.0
21121;DHT22;12519;43.318;21.898;2023-02-28T00:47:14;6.3;98.0
21121;DHT22;12519;43.318;21.898;2023-02-28T00:51:53;6.2;99.0
21121;DHT22;12519;43.318;21.898;2023-02-28T00:56:32;6.2;99.0
21121;DHT22;12519;43.318;21.898;2023-02-28T01:01:09;6.1;100.0
21121;DHT22;12519;43.318;21.898;2023-02-28T01:05:47;6.1;100.0
21121;DHT22;12519;43.318;21.898;2023-02-28T01:10:25;5.9;100.0
21121;DHT22;12519;43.318;21.898;2023-02-28T01:15:09;5.9;100.0
21121;DHT22;12519;43.318;21.898;2023-02-28T01:19:48;5.9;100.0
21121;DHT22;12519;43.318;21.898;2023-02-28T01:24:24;5.7;100.0
21121;DHT22;12519;43.318;21.898;2023-02-28T01:29:02;5.7;100.0
21121;DHT22;12519;43.318;21.898;2023-02-28T01:33:40;5.8;100.0
21121;DHT22;12519;43.318;21.898;2023-02-28T01:38:17;5.8;100.0
21121;DHT22;12519;43.318;21.898;2023-02-28T01:42:54;5.9;100.0
21121;DHT22;12519;43.318;21.898;2023-02-28T01:47:36;5.9;100.0
21121;DHT22;12519;43.318;21.898;2023-02-28T01:52:26;6.1;100.0
21121;DHT22;12519;43.318;21.898;2023-02-28T01:57:17;6.1;100.0
21121;DHT22;12519;43.318;21.898;2023-02-28T02:02:12;6.2;100.0
21121;DHT22;12519;43.318;21.898;2023-02-28T02:06:57;6.2;100.0
21121;DHT22;12519;43.318;21.898;2023-02-28T02:11:39;6.2;99.0
21121;DHT22;12519;43.318;21.898;2023-02-28T02:16:45;6.2;99.0
21121;DHT22;12519;43.318;21.898;2023-02-28T02:22:36;6.2;99.0
21121;DHT22;12519;43.318;21.898;2023-02-28T02:31:54;6.2;99.0
21121;DHT22;12519;43.318;21.898;2023-02-28T02:37:29;6.1;99.0
21121;DHT22;12519;43.318;21.898;2023-02-28T02:42:28;6.0;99.0
21121;DHT22;12519;43.318;21.898;2023-02-28T02:47:26;6.0;99.0
21121;DHT22;12519;43.318;21.898;2023-02-28T02:52:17;6.0;99.0
21121;DHT22;12519;43.318;21.898;2023-02-28T02:57:15;6.0;99.0
21121;DHT22;12519;43.318;21.898;2023-02-28T03:02:13;6.0;99.0
21121;DHT22;12519;43.318;21.898;2023-02-28T03:06:59;6.0;99.0
21121;DHT22;12519;43.318;21.898;2023-02-28T03:11:39;6.1;98.0
21121;DHT22;12519;43.318;21.898;2023-02-28T03:16:42;6.1;98.0
21121;DHT22;12519;43.318;21.898;2023-02-28T03:22:45;6.2;98.0
21121;DHT22;12519;43.318;21.898;2023-02-28T03:28:09;6.2;98.0
21121;DHT22;12519;43.318;21.898;2023-02-28T03:33:32;6.2;98.0
21121;DHT22;12519;43.318;21.898;2023-02-28T03:38:40;6.2;98.0
21121;DHT22;12519;43.318;21.898;2023-02-28T03:43:46;6.2;98.0
21121;DHT22;12519;43.318;21.898;2023-02-28T03:48:49;6.2;98.0
21121;DHT22;12519;43.318;21.898;2023-02-28T03:53:52;6.1;98.0
21121;DHT22;12519;43.318;21.898;2023-02-28T03:58:55;6.1;98.0
21121;DHT22;12519;43.318;21.898;2023-02-28T04:03:50;5.9;98.0
21121;DHT22;12519;43.318;21.898;2023-02-28T04:08:28;5.9;98.0
21121;DHT22;12519;43.318;21.898;2023-02-28T04:13:04;6.0;98.0
21121;DHT22;12519;43.318;21.898;2023-02-28T04:17:41;6.0;98.0
21121;DHT22;12519;43.318;21.898;2023-02-28T04:22:17;6.1;98.0
21121;DHT22;12519;43.318;21.898;2023-02-28T04:26:57;6.1;98.0
21121;DHT22;12519;43.318;21.898;2023-02-28T04:31:34;5.9;99.0
21121;DHT22;12519;43.318;21.898;2023-02-28T04:36:12;5.9;99.0
21121;DHT22;12519;43.318;21.898;2023-02-28T04:40:49;5.8;100.0
21121;DHT22;12519;43.318;21.898;2023-02-28T04:45:25;5.8;100.0
21121;DHT22;12519;43.318;21.898;2023-02-28T04:50:03;5.8;100.0
21121;DHT22;12519;43.318;21.898;2023-02-28T04:54:42;5.8;100.0
21121;DHT22;12519;43.318;21.898;2023-02-28T04:59:19;5.8;100.0
21121;DHT22;12519;43.318;21.898;2023-02-28T05:03:59;5.7;100.0
21121;DHT22;12519;43.318;21.898;2023-02-28T05:08:41;5.7;100.0
21121;DHT22;12519;43.318;21.898;2023-02-28T05:13:17;5.8;100.0
21121;DHT22;12519;43.318;21.898;2023-02-28T05:17:54;5.8;100.0
21121;DHT22;12519;43.318;21.898;2023-02-28T05:22:30;5.8;100.0
21121;DHT22;12519;43.318;21.898;2023-02-28T05:27:08;5.8;100.0
21121;DHT22;12519;43.318;21.898;2023-02-28T05:31:46;5.6;100.0
21121;DHT22;12519;43.318;21.898;2023-02-28T05:36:24;5.6;100.0
21121;DHT22;12519;43.318;21.898;2023-02-28T05:41:06;5.5;100.0
21121;DHT22;12519;43.318;21.898;2023-02-28T05:45:46;5.5;100.0
21121;DHT22;12519;43.318;21.898;2023-02-28T05:50:22;5.5;100.0
21121;DHT22;12519;43.318;21.898;2023-02-28T05:54:59;7.6;97.0
21121;DHT22;12519;43.318;21.898;2023-02-28T05:59:36;7.6;97.0
21121;DHT22;12519;43.318;21.898;2023-02-28T06:04:14;9.8;94.0
21121;DHT22;12519;43.318;21.898;2023-02-28T06:08:57;9.8;94.0
21121;DHT22;12519;43.318;21.898;2023-02-28T06:13:33;8.5;95.0
21121;DHT22;12519;43.318;21.898;2023-02-28T06:18:10;8.5;95.0
21121;DHT22;12519;43.318;21.898;2023-02-28T06:22:47;7.2;96.0
21121;DHT22;12519;43.318;21.898;2023-02-28T06:27:23;7.2;96.0
21121;DHT22;12519;43.318;21.898;2023-02-28T06:32:00;6.6;98.0
21121;DHT22;12519;43.318;21.898;2023-02-28T06:36:37;6.6;98.0
21121;DHT22;12519;43.318;21.898;2023-02-28T06:41:15;6.1;99.0
21121;DHT22;12519;43.318;21.898;2023-02-28T06:45:55;6.1;99.0
21121;DHT22;12519;43.318;21.898;2023-02-28T06:50:35;6.1;99.0
21121;DHT22;12519;43.318;21.898;2023-02-28T06:55:12;6.4;100.0
21121;DHT22;12519;43.318;21.898;2023-02-28T06:59:49;6.4;100.0
21121;DHT22;12519;43.318;21.898;2023-02-28T07:04:25;6.6;100.0
21121;DHT22;12519;43.318;21.898;2023-02-28T07:09:03;6.6;100.0
21121;DHT22;12519;43.318;21.898;2023-02-28T07:13:41;6.5;100.0
21121;DHT22;12519;43.318;21.898;2023-02-28T07:18:18;6.5;100.0
21121;DHT22;12519;43.318;21.898;2023-02-28T07:22:55;6.4;99.0
21121;DHT22;12519;43.318;21.898;2023-02-28T07:27:31;6.4;99.0
21121;DHT22;12519;43.318;21.898;2023-02-28T07:32:08;6.4;100.0
21121;DHT22;12519;43.318;21.898;2023-02-28T07:36:45;6.4;100.0
21121;DHT22;12519;43.318;21.898;2023-02-28T07:41:22;6.4;100.0
21121;DHT22;12519;43.318;21.898;2023-02-28T07:46:03;6.4;100.0
21121;DHT22;12519;43.318;21.898;2023-02-28T07:50:54;6.4;100.0
21121;DHT22;12519;43.318;21.898;2023-02-28T07:55:33;6.4;100.0
21121;DHT22;12519;43.318;21.898;2023-02-28T08:00:12;6.4;100.0
21121;DHT22;12519;43.318;21.898;2023-02-28T08:04:50;6.4;100.0
21121;DHT22;12519;43.318;21.898;2023-02-28T08:09:26;6.4;100.0
21121;DHT22;12519;43.318;21.898;2023-02-28T08:14:02;6.4;100.0
21121;DHT22;12519;43.318;21.898;2023-02-28T08:18:39;6.4;100.0
21121;DHT22;12519;43.318;21.898;2023-02-28T08:23:15;6.5;100.0
21121;DHT22;12519;43.318;21.898;2023-02-28T08:27:52;6.5;100.0
21121;DHT22;12519;43.318;21.898;2023-02-28T08:32:29;8.8;98.0
21121;DHT22;12519;43.318;21.898;2023-02-28T08:37:08;8.8;98.0
21121;DHT22;12519;43.318;21.898;2023-02-28T08:41:46;11.1;96.0
21121;DHT22;12519;43.318;21.898;2023-02-28T08:46:24;11.1;96.0
21121;DHT22;12519;43.318;21.898;2023-02-28T08:51:07;11.1;96.0
21121;DHT22;12519;43.318;21.898;2023-02-28T08:55:58;11.2;92.0
21121;DHT22;12519;43.318;21.898;2023-02-28T09:00:44;11.2;92.0
21121;DHT22;12519;43.318;21.898;2023-02-28T09:05:21;11.3;88.0
21121;DHT22;12519;43.318;21.898;2023-02-28T09:09:58;11.3;88.0
21121;DHT22;12519;43.318;21.898;2023-02-28T09:14:34;9.8;91.0
21121;DHT22;12519;43.318;21.898;2023-02-28T09:19:11;9.8;91.0
21121;DHT22;12519;43.318;21.898;2023-02-28T09:23:50;8.2;95.0
21121;DHT22;12519;43.318;21.898;2023-02-28T09:28:27;8.2;95.0
21121;DHT22;12519;43.318;21.898;2023-02-28T09:33:03;8.0;96.0
21121;DHT22;12519;43.318;21.898;2023-02-28T09:37:39;8.0;96.0
21121;DHT22;12519;43.318;21.898;2023-02-28T09:42:29;7.8;97.0
21121;DHT22;12519;43.318;21.898;2023-02-28T09:47:25;7.8;97.0
21121;DHT22;12519;43.318;21.898;2023-02-28T09:52:19;7.8;98.0
21121;DHT22;12519;43.318;21.898;2023-02-28T09:57:15;7.8;98.0
21121;DHT22;12519;43.318;21.898;2023-02-28T10:02:43;7.7;99.0
21121;DHT22;12519;43.318;21.898;2023-02-28T10:08:15;7.7;99.0
21121;DHT22;12519;43.318;21.898;2023-02-28T10:13:17;7.4;99.0
21121;DHT22;12519;43.318;21.898;2023-02-28T10:18:21;7.4;99.0
21121;DHT22;12519;43.318;21.898;2023-02-28T10:23:28;7.2;100.0
21121;DHT22;12519;43.318;21.898;2023-02-28T10:28:16;7.2;100.0
21121;DHT22;12519;43.318;21.898;2023-02-28T10:32:53;7.2;100.0
21121;DHT22;12519;43.318;21.898;2023-02-28T10:37:30;7.2;100.0
21121;DHT22;12519;43.318;21.898;2023-02-28T10:42:23;7.3;100.0
21121;DHT22;12519;43.318;21.898;2023-02-28T10:47:04;7.3;100.0
21121;DHT22;12519;43.318;21.898;2023-02-28T10:51:41;7.3;100.0
21121;DHT22;12519;43.318;21.898;2023-02-28T10:56:22;7.3;100.0
21121;DHT22;12519;43.318;21.898;2023-02-28T11:01:01;7.3;100.0
21121;DHT22;12519;43.318;21.898;2023-02-28T11:05:37;7.3;100.0
21121;DHT22;12519;43.318;21.898;2023-02-28T11:10:21;7.3;100.0
21121;DHT22;12519;43.318;21.898;2023-02-28T11:15:25;7.4;100.0
21121;DHT22;12519;43.318;21.898;2023-02-28T11:20:21;7.4;100.0
21121;DHT22;12519;43.318;21.898;2023-02-28T11:25:22;7.5;100.0
21121;DHT22;12519;43.318;21.898;2023-02-28T11:30:27;7.5;100.0
21121;DHT22;12519;43.318;21.898;2023-02-28T11:35:28;7.6;100.0
21121;DHT22;12519;43.318;21.898;2023-02-28T11:40:24;7.6;100.0
21121;DHT22;12519;43.318;21.898;2023-02-28T11:46:22;7.6;100.0
21121;DHT22;12519;43.318;21.898;2023-02-28T11:51:34;7.6;100.0
21121;DHT22;12519;43.318;21.898;2023-02-28T11:56:41;7.8;100.0
21121;DHT22;12519;43.318;21.898;2023-02-28T12:02:04;7.9;100.0
21121;DHT22;12519;43.318;21.898;2023-02-28T12:07:24;7.9;100.0
21121;DHT22;12519;43.318;21.898;2023-02-28T12:12:50;8.0;100.0
21121;DHT22;12519;43.318;21.898;2023-02-28T12:18:28;8.0;100.0
21121;DHT22;12519;43.318;21.898;2023-02-28T12:24:12;8.0;100.0
21121;DHT22;12519;43.318;21.898;2023-02-28T12:29:46;8.0;100.0
21121;DHT22;12519;43.318;21.898;2023-02-28T12:34:56;8.0;100.0
21121;DHT22;12519;43.318;21.898;2023-02-28T12:40:03;8.0;100.0
21121;DHT22;12519;43.318;21.898;2023-02-28T12:45:01;8.1;100.0
21121;DHT22;12519;43.318;21.898;2023-02-28T12:50:04;8.1;100.0
21121;DHT22;12519;43.318;21.898;2023-02-28T12:54:55;8.1;100.0
21121;DHT22;12519;43.318;21.898;2023-02-28T13:00:08;8.1;100.0
21121;DHT22;12519;43.318;21.898;2023-02-28T13:05:16;8.1;100.0
21121;DHT22;12519;43.318;21.898;2023-02-28T13:10:45;8.1;100.0
21121;DHT22;12519;43.318;21.898;2023-02-28T13:15:28;8.5;99.0
21121;DHT22;12519;43.318;21.898;2023-02-28T13:20:18;8.5;99.0
21121;DHT22;12519;43.318;21.898;2023-02-28T13:25:02;8.9;99.0
21121;DHT22;12519;43.318;21.898;2023-02-28T13:31:04;8.9;99.0
21121;DHT22;12519;43.318;21.898;2023-02-28T13:35:44;8.7;99.0
21121;DHT22;12519;43.318;21.898;2023-02-28T13:40:32;8.7;99.0
21121;DHT22;12519;43.318;21.898;2023-02-28T13:45:26;8.5;100.0
21121;DHT22;12519;43.318;21.898;2023-02-28T13:50:31;8.5;100.0
21121;DHT22;12519;43.318;21.898;2023-02-28T13:55:31;8.6;100.0
21121;DHT22;12519;43.318;21.898;2023-02-28T14:01:04;8.6;100.0
21121;DHT22;12519;43.318;21.898;2023-02-28T14:06:48;8.6;100.0
21121;DHT22;12519;43.318;21.898;2023-02-28T14:11:37;8.6;100.0
21121;DHT22;12519;43.318;21.898;2023-02-28T14:16:25;8.6;100.0
21121;DHT22;12519;43.318;21.898;2023-02-28T14:21:25;8.6;100.0
21121;DHT22;12519;43.318;21.898;2023-02-28T14:26:35;8.6;100.0
21121;DHT22;12519;43.318;21.898;2023-02-28T14:32:32;8.6;100.0
21121;DHT22;12519;43.318;21.898;2023-02-28T14:37:39;8.6;100.0
21121;DHT22;12519;43.318;21.898;2023-02-28T14:42:37;8.7;100.0
21121;DHT22;12519;43.318;21.898;2023-02-28T14:47:16;8.7;100.0
21121;DHT22;12519;43.318;21.898;2023-02-28T14:52:09;8.6;100.0
21121;DHT22;12519;43.318;21.898;2023-02-28T14:56:59;8.6;100.0
21121;DHT22;12519;43.318;21.898;2023-02-28T15:01:36;8.6;100.0
21121;DHT22;12519;43.318;21.898;2023-02-28T15:06:16;8.5;100.0
21121;DHT22;12519;43.318;21.898;2023-02-28T15:10:58;8.5;100.0
21121;DHT22;12519;43.318;21.898;2023-02-28T15:15:57;8.5;100.0
21121;DHT22;12519;43.318;21.898;2023-02-28T15:20:45;8.5;100.0
21121;DHT22;12519;43.318;21.898;2023-02-28T15:25:25;8.5;100.0
21121;DHT22;12519;43.318;21.898;2023-02-28T15:30:15;8.5;100.0
21121;DHT22;12519;43.318;21.898;2023-02-28T15:35:27;8.6;100.0
21121;DHT22;12519;43.318;21.898;2023-02-28T15:40:22;8.6;100.0
21121;DHT22;12519;43.318;21.898;2023-02-28T15:45:31;8.7;100.0
21121;DHT22;12519;43.318;21.898;2023-02-28T15:50:21;8.7;100.0
21121;DHT22;12519;43.318;21.898;2023-02-28T15:54:58;8.8;100.0
21121;DHT22;12519;43.318;21.898;2023-02-28T15:59:56;8.8;100.0
21121;DHT22;12519;43.318;21.898;2023-02-28T16:04:58;8.9;100.0
21121;DHT22;12519;43.318;21.898;2023-02-28T16:09:55;8.9;100.0
21121;DHT22;12519;43.318;21.898;2023-02-28T16:14:32;9.9;99.0
21121;DHT22;12519;43.318;21.898;2023-02-28T16:19:08;9.9;99.0
21121;DHT22;12519;43.318;21.898;2023-02-28T16:23:45;10.8;97.0
21121;DHT22;12519;43.318;21.898;2023-02-28T16:28:29;10.8;97.0
21121;DHT22;12519;43.318;21.898;2023-02-28T16:33:14;10.6;95.0
21121;DHT22;12519;43.318;21.898;2023-02-28T16:37:52;10.6;95.0
21121;DHT22;12519;43.318;21.898;2023-02-28T16:42:31;10.5;93.0
21121;DHT22;12519;43.318;21.898;2023-02-28T16:47:10;10.5;93.0
21121;DHT22;12519;43.318;21.898;2023-02-28T16:51:47;10.5;93.0
21121;DHT22;12519;43.318;21.898;2023-02-28T16:56:25;9.8;95.0
21121;DHT22;12519;43.318;21.898;2023-02-28T17:01:02;9.8;95.0
21121;DHT22;12519;43.318;21.898;2023-02-28T17:05:40;9.1;97.0
21121;DHT22;12519;43.318;21.898;2023-02-28T17:10:19;9.1;97.0
21121;DHT22;12519;43.318;21.898;2023-02-28T17:15:02;8.8;98.0
21121;DHT22;12519;43.318;21.898;2023-02-28T17:19:46;8.8;98.0
21121;DHT22;12519;43.318;21.898;2023-02-28T17:24:24;8.5;100.0
21121;DHT22;12519;43.318;21.898;2023-02-28T17:29:00;8.5;100.0
21121;DHT22;12519;43.318;21.898;2023-02-28T17:33:37;8.4;100.0
21121;DHT22;12519;43.318;21.898;2023-02-28T17:38:16;8.4;100.0
21121;DHT22;12519;43.318;21.898;2023-02-28T17:42:56;8.3;100.0
21121;DHT22;12519;43.318;21.898;2023-02-28T17:47:32;8.3;100.0
21121;DHT22;12519;43.318;21.898;2023-02-28T17:52:08;8.3;100.0
21121;DHT22;12519;43.318;21.898;2023-02-28T17:56:45;8.4;100.0
21121;DHT22;12519;43.318;21.898;2023-02-28T18:01:22;8.4;100.0
21121;DHT22;12519;43.318;21.898;2023-02-28T18:06:01;8.5;100.0
21121;DHT22;12519;43.318;21.898;2023-02-28T18:10:40;8.5;100.0
21121;DHT22;12519;43.318;21.898;2023-02-28T18:15:18;8.6;99.0
21121;DHT22;12519;43.318;21.898;2023-02-28T18:19:57;8.6;99.0
21121;DHT22;12519;43.318;21.898;2023-02-28T18:24:34;8.6;99.0
21121;DHT22;12519;43.318;21.898;2023-02-28T18:29:16;8.6;99.0
21121;DHT22;12519;43.318;21.898;2023-02-28T18:33:59;8.4;99.0
21121;DHT22;12519;43.318;21.898;2023-02-28T18:38:36;8.4;99.0
21121;DHT22;12519;43.318;21.898;2023-02-28T18:43:14;8.3;99.0
21121;DHT22;12519;43.318;21.898;2023-02-28T18:47:50;8.3;99.0
21121;DHT22;12519;43.318;21.898;2023-02-28T18:52:27;8.3;99.0
21121;DHT22;12519;43.318;21.898;2023-02-28T18:57:03;8.2;99.0
21121;DHT22;12519;43.318;21.898;2023-02-28T19:01:40;8.2;99.0
21121;DHT22;12519;43.318;21.898;2023-02-28T19:06:18;8.1;100.0
21121;DHT22;12519;43.318;21.898;2023-02-28T19:10:55;8.1;100.0
21121;DHT22;12519;43.318;21.898;2023-02-28T19:15:32;8.0;100.0
21121;DHT22;12519;43.318;21.898;2023-02-28T19:20:09;8.0;100.0
21121;DHT22;12519;43.318;21.898;2023-02-28T19:24:49;7.8;100.0
21121;DHT22;12519;43.318;21.898;2023-02-28T19:29:27;7.8;100.0
21121;DHT22;12519;43.318;21.898;2023-02-28T19:34:03;7.7;100.0
21121;DHT22;12519;43.318;21.898;2023-02-28T19:38:41;7.7;100.0
21121;DHT22;12519;43.318;21.898;2023-02-28T19:43:19;7.6;100.0
21121;DHT22;12519;43.318;21.898;2023-02-28T19:47:56;7.6;100.0
21121;DHT22;12519;43.318;21.898;2023-02-28T19:52:32;7.6;100.0
21121;DHT22;12519;43.318;21.898;2023-02-28T19:57:09;7.4;100.0
21121;DHT22;12519;43.318;21.898;2023-02-28T20:01:46;7.4;100.0
21121;DHT22;12519;43.318;21.898;2023-02-28T20:06:22;7.3;100.0
21121;DHT22;12519;43.318;21.898;2023-02-28T20:11:02;7.3;100.0
21121;DHT22;12519;43.318;21.898;2023-02-28T20:15:42;7.3;100.0
21121;DHT22;12519;43.318;21.898;2023-02-28T20:20:18;7.3;100.0
21121;DHT22;12519;43.318;21.898;2023-02-28T20:24:54;7.3;100.0
21121;DHT22;12519;43.318;21.898;2023-02-28T20:29:32;7.3;100.0
21121;DHT22;12519;43.318;21.898;2023-02-28T20:34:10;7.4;100.0
21121;DHT22;12519;43.318;21.898;2023-02-28T20:38:46;7.4;100.0
21121;DHT22;12519;43.318;21.898;2023-02-28T20:43:25;7.4;100.0
21121;DHT22;12519;43.318;21.898;2023-02-28T20:48:04;7.4;100.0
21121;DHT22;12519;43.318;21.898;2023-02-28T20:52:40;7.4;100.0
21121;DHT22;12519;43.318;21.898;2023-02-28T20:57:16;7.4;100.0
21121;DHT22;12519;43.318;21.898;2023-02-28T21:01:53;7.4;100.0
21121;DHT22;12519;43.318;21.898;2023-02-28T21:06:31;7.4;100.0
21121;DHT22;12519;43.318;21.898;2023-02-28T21:11:17;7.4;100.0
21121;DHT22;12519;43.318;21.898;2023-02-28T21:16:04;7.6;100.0
21121;DHT22;12519;43.318;21.898;2023-02-28T21:20:47;7.6;100.0
21121;DHT22;12519;43.318;21.898;2023-02-28T21:25:23;7.7;100.0
21121;DHT22;12519;43.318;21.898;2023-02-28T21:30:00;7.7;100.0
21121;DHT22;12519;43.318;21.898;2023-02-28T21:34:36;7.6;100.0
21121;DHT22;12519;43.318;21.898;2023-02-28T21:39:15;7.6;100.0
21121;DHT22;12519;43.318;21.898;2023-02-28T21:44:02;7.4;100.0
21121;DHT22;12519;43.318;21.898;2023-02-28T21:48:40;7.4;100.0
21121;DHT22;12519;43.318;21.898;2023-02-28T21:53:18;7.4;99.0
21121;DHT22;12519;43.318;21.898;2023-02-28T21:57:55;7.4;99.0
21121;DHT22;12519;43.318;21.898;2023-02-28T22:02:32;7.4;99.0
21121;DHT22;12519;43.318;21.898;2023-02-28T22:07:08;7.3;99.0
21121;DHT22;12519;43.318;21.898;2023-02-28T22:11:45;7.3;99.0
21121;DHT22;12519;43.318;21.898;2023-02-28T22:16:26;7.8;99.0
21121;DHT22;12519;43.318;21.898;2023-02-28T22:21:10;7.8;99.0
21121;DHT22;12519;43.318;21.898;2023-02-28T22:25:55;8.3;100.0
21121;DHT22;12519;43.318;21.898;2023-02-28T22:30:40;8.3;100.0
21121;DHT22;12519;43.318;21.898;2023-02-28T22:35:17;8.0;100.0
21121;DHT22;12519;43.318;21.898;2023-02-28T22:39:54;8.0;100.0
21121;DHT22;12519;43.318;21.898;2023-02-28T22:44:30;7.6;100.0
21121;DHT22;12519;43.318;21.898;2023-02-28T22:49:07;7.6;100.0
21121;DHT22;12519;43.318;21.898;2023-02-28T22:53:45;7.4;100.0
21121;DHT22;12519;43.318;21.898;2023-02-28T22:58:26;7.4;100.0
21121;DHT22;12519;43.318;21.898;2023-02-28T23:03:04;7.3;100.0
21121;DHT22;12519;43.318;21.898;2023-02-28T23:07:41;7.3;100.0
21121;DHT22;12519;43.318;21.898;2023-02-28T23:12:18;7.3;100.0
21121;DHT22;12519;43.318;21.898;2023-02-28T23:16:55;7.2;100.0
21121;DHT22;12519;43.318;21.898;2023-02-28T23:21:32;7.2;100.0
21121;DHT22;12519;43.318;21.898;2023-02-28T23:26:11;7.2;100.0
21121;DHT22;12519;43.318;21.898;2023-02-28T23:30:47;7.2;100.0
21121;DHT22;12519;43.318;21.898;2023-02-28T23:35:24;7.2;100.0
21121;DHT22;12519;43.318;21.898;2023-02-28T23:40:01;7.2;100.0
21121;DHT22;12519;43.318;21.898;2023-02-28T23:44:46;7.1;100.0
21121;DHT22;12519;43.318;21.898;2023-02-28T23:49:22;7.1;100.0
21121;DHT22;12519;43.318;21.898;2023-02-28T23:53:59;6.9;100.0
21121;DHT22;12519;43.318;21.898;2023-02-28T23:58:36;6.9;100.0
